sensor_id;sensor_type;location;lat;lon;timestamp;P1;durP1;ratioP1;P2;durP2;ratioP2
45792;SDS011;31495;42.740;22.908;2022-07-30T00:00:09;11.38;;;5.70;;
45792;SDS011;31495;42.740;22.908;2022-07-30T00:01:09;5.80;;;4.72;;
45792;SDS011;31495;42.740;22.908;2022-07-30T00:02:09;5.68;;;4.53;;
45792;SDS011;31495;42.740;22.908;2022-07-30T00:03:08;8.63;;;5.55;;
45792;SDS011;31495;42.740;22.908;2022-07-30T00:04:07;5.97;;;4.68;;
45792;SDS011;31495;42.740;22.908;2022-07-30T00:05:07;5.40;;;4.65;;
45792;SDS011;31495;42.740;22.908;2022-07-30T00:06:07;5.53;;;4.25;;
45792;SDS011;31495;42.740;22.908;2022-07-30T00:07:06;7.93;;;4.40;;
45792;SDS011;31495;42.740;22.908;2022-07-30T00:08:06;7.53;;;4.80;;
45792;SDS011;31495;42.740;22.908;2022-07-30T00:09:06;6.10;;;4.68;;
45792;SDS011;31495;42.740;22.908;2022-07-30T00:10:05;7.35;;;4.60;;
45792;SDS011;31495;42.740;22.908;2022-07-30T00:11:05;5.30;;;4.38;;
45792;SDS011;31495;42.740;22.908;2022-07-30T00:12:05;7.40;;;4.82;;
45792;SDS011;31495;42.740;22.908;2022-07-30T00:13:05;6.07;;;4.32;;
45792;SDS011;31495;42.740;22.908;2022-07-30T00:14:05;6.63;;;4.75;;
45792;SDS011;31495;42.740;22.908;2022-07-30T00:15:06;6.65;;;4.93;;
45792;SDS011;31495;42.740;22.908;2022-07-30T00:16:07;7.10;;;4.53;;
45792;SDS011;31495;42.740;22.908;2022-07-30T00:17:06;6.05;;;4.88;;
45792;SDS011;31495;42.740;22.908;2022-07-30T00:18:06;7.78;;;6.78;;
45792;SDS011;31495;42.740;22.908;2022-07-30T00:19:05;12.10;;;4.88;;
45792;SDS011;31495;42.740;22.908;2022-07-30T00:20:05;6.28;;;4.90;;
45792;SDS011;31495;42.740;22.908;2022-07-30T00:21:05;5.80;;;4.70;;
45792;SDS011;31495;42.740;22.908;2022-07-30T00:22:04;6.60;;;4.72;;
45792;SDS011;31495;42.740;22.908;2022-07-30T00:23:04;5.15;;;3.97;;
45792;SDS011;31495;42.740;22.908;2022-07-30T00:24:04;7.57;;;4.85;;
45792;SDS011;31495;42.740;22.908;2022-07-30T00:25:05;5.55;;;4.13;;
45792;SDS011;31495;42.740;22.908;2022-07-30T00:26:04;6.35;;;5.03;;
45792;SDS011;31495;42.740;22.908;2022-07-30T00:27:04;8.25;;;4.45;;
45792;SDS011;31495;42.740;22.908;2022-07-30T00:28:03;7.20;;;4.68;;
45792;SDS011;31495;42.740;22.908;2022-07-30T00:29:03;6.43;;;4.95;;
45792;SDS011;31495;42.740;22.908;2022-07-30T00:30:03;9.50;;;4.47;;
45792;SDS011;31495;42.740;22.908;2022-07-30T00:31:04;7.43;;;5.00;;
45792;SDS011;31495;42.740;22.908;2022-07-30T00:32:03;6.22;;;4.72;;
45792;SDS011;31495;42.740;22.908;2022-07-30T00:33:03;7.75;;;4.43;;
45792;SDS011;31495;42.740;22.908;2022-07-30T00:34:03;5.45;;;4.45;;
45792;SDS011;31495;42.740;22.908;2022-07-30T00:35:03;7.60;;;4.28;;
45792;SDS011;31495;42.740;22.908;2022-07-30T00:36:02;5.13;;;4.55;;
45792;SDS011;31495;42.740;22.908;2022-07-30T00:37:02;5.20;;;4.20;;
45792;SDS011;31495;42.740;22.908;2022-07-30T00:38:02;5.30;;;4.55;;
45792;SDS011;31495;42.740;22.908;2022-07-30T00:39:01;7.28;;;4.43;;
45792;SDS011;31495;42.740;22.908;2022-07-30T00:40:00;7.53;;;4.25;;
45792;SDS011;31495;42.740;22.908;2022-07-30T00:41:00;5.85;;;4.95;;
45792;SDS011;31495;42.740;22.908;2022-07-30T00:42:00;6.47;;;4.72;;
45792;SDS011;31495;42.740;22.908;2022-07-30T00:43:01;6.32;;;5.03;;
45792;SDS011;31495;42.740;22.908;2022-07-30T00:44:01;5.65;;;4.60;;
45792;SDS011;31495;42.740;22.908;2022-07-30T00:45:00;6.03;;;4.68;;
45792;SDS011;31495;42.740;22.908;2022-07-30T00:45:59;6.78;;;4.85;;
45792;SDS011;31495;42.740;22.908;2022-07-30T00:46:59;6.07;;;5.13;;
45792;SDS011;31495;42.740;22.908;2022-07-30T00:47:59;6.75;;;4.43;;
45792;SDS011;31495;42.740;22.908;2022-07-30T00:48:59;6.72;;;4.88;;
45792;SDS011;31495;42.740;22.908;2022-07-30T00:49:58;6.60;;;4.60;;
45792;SDS011;31495;42.740;22.908;2022-07-30T00:51:02;5.18;;;4.60;;
45792;SDS011;31495;42.740;22.908;2022-07-30T00:52:01;7.03;;;5.55;;
45792;SDS011;31495;42.740;22.908;2022-07-30T00:53:01;6.05;;;5.32;;
45792;SDS011;31495;42.740;22.908;2022-07-30T00:54:01;5.85;;;4.60;;
45792;SDS011;31495;42.740;22.908;2022-07-30T00:55:00;8.38;;;4.47;;
45792;SDS011;31495;42.740;22.908;2022-07-30T00:56:00;6.45;;;4.75;;
45792;SDS011;31495;42.740;22.908;2022-07-30T00:57:01;7.05;;;5.38;;
45792;SDS011;31495;42.740;22.908;2022-07-30T00:58:00;6.72;;;4.88;;
45792;SDS011;31495;42.740;22.908;2022-07-30T00:59:00;11.70;;;4.57;;
45792;SDS011;31495;42.740;22.908;2022-07-30T00:59:55;5.15;;;4.43;;
45792;SDS011;31495;42.740;22.908;2022-07-30T01:00:55;7.85;;;4.95;;
45792;SDS011;31495;42.740;22.908;2022-07-30T01:01:54;5.93;;;5.10;;
45792;SDS011;31495;42.740;22.908;2022-07-30T01:02:53;9.77;;;5.45;;
45792;SDS011;31495;42.740;22.908;2022-07-30T01:03:53;6.03;;;4.45;;
45792;SDS011;31495;42.740;22.908;2022-07-30T01:04:53;7.57;;;4.72;;
45792;SDS011;31495;42.740;22.908;2022-07-30T01:05:52;7.22;;;5.35;;
45792;SDS011;31495;42.740;22.908;2022-07-30T01:06:52;6.80;;;5.13;;
45792;SDS011;31495;42.740;22.908;2022-07-30T01:07:51;6.82;;;4.63;;
45792;SDS011;31495;42.740;22.908;2022-07-30T01:08:50;8.15;;;5.15;;
45792;SDS011;31495;42.740;22.908;2022-07-30T01:09:50;5.30;;;4.63;;
45792;SDS011;31495;42.740;22.908;2022-07-30T01:10:49;6.60;;;4.63;;
45792;SDS011;31495;42.740;22.908;2022-07-30T01:11:49;8.02;;;5.38;;
45792;SDS011;31495;42.740;22.908;2022-07-30T01:12:48;5.60;;;4.70;;
45792;SDS011;31495;42.740;22.908;2022-07-30T01:13:50;9.43;;;5.25;;
45792;SDS011;31495;42.740;22.908;2022-07-30T01:14:50;5.20;;;4.55;;
45792;SDS011;31495;42.740;22.908;2022-07-30T01:15:50;9.70;;;4.93;;
45792;SDS011;31495;42.740;22.908;2022-07-30T01:16:50;6.03;;;4.63;;
45792;SDS011;31495;42.740;22.908;2022-07-30T01:17:49;9.05;;;5.22;;
45792;SDS011;31495;42.740;22.908;2022-07-30T01:18:51;7.95;;;5.50;;
45792;SDS011;31495;42.740;22.908;2022-07-30T01:20:17;5.55;;;4.47;;
45792;SDS011;31495;42.740;22.908;2022-07-30T01:21:26;6.78;;;4.32;;
45792;SDS011;31495;42.740;22.908;2022-07-30T01:22:36;5.57;;;4.95;;
45792;SDS011;31495;42.740;22.908;2022-07-30T01:23:44;7.85;;;5.20;;
45792;SDS011;31495;42.740;22.908;2022-07-30T01:26:04;5.88;;;4.80;;
45792;SDS011;31495;42.740;22.908;2022-07-30T01:27:07;5.60;;;4.65;;
45792;SDS011;31495;42.740;22.908;2022-07-30T01:28:09;6.55;;;5.28;;
45792;SDS011;31495;42.740;22.908;2022-07-30T01:29:12;4.82;;;4.32;;
45792;SDS011;31495;42.740;22.908;2022-07-30T01:30:16;6.40;;;4.70;;
45792;SDS011;31495;42.740;22.908;2022-07-30T01:31:18;6.95;;;5.70;;
45792;SDS011;31495;42.740;22.908;2022-07-30T01:32:20;8.27;;;5.97;;
45792;SDS011;31495;42.740;22.908;2022-07-30T01:33:23;6.88;;;4.82;;
45792;SDS011;31495;42.740;22.908;2022-07-30T01:34:26;5.03;;;4.28;;
45792;SDS011;31495;42.740;22.908;2022-07-30T01:35:28;9.57;;;4.72;;
45792;SDS011;31495;42.740;22.908;2022-07-30T01:36:30;8.05;;;5.75;;
45792;SDS011;31495;42.740;22.908;2022-07-30T01:37:30;7.60;;;4.78;;
45792;SDS011;31495;42.740;22.908;2022-07-30T01:38:33;8.02;;;5.60;;
45792;SDS011;31495;42.740;22.908;2022-07-30T01:39:34;6.68;;;4.80;;
45792;SDS011;31495;42.740;22.908;2022-07-30T01:40:35;7.07;;;5.50;;
45792;SDS011;31495;42.740;22.908;2022-07-30T01:41:37;7.45;;;5.65;;
45792;SDS011;31495;42.740;22.908;2022-07-30T01:42:37;5.50;;;4.75;;
45792;SDS011;31495;42.740;22.908;2022-07-30T01:43:39;6.15;;;4.53;;
45792;SDS011;31495;42.740;22.908;2022-07-30T01:45:41;8.82;;;5.30;;
45792;SDS011;31495;42.740;22.908;2022-07-30T01:47:42;6.18;;;5.00;;
45792;SDS011;31495;42.740;22.908;2022-07-30T01:48:42;6.53;;;5.00;;
45792;SDS011;31495;42.740;22.908;2022-07-30T01:49:44;5.75;;;4.70;;
45792;SDS011;31495;42.740;22.908;2022-07-30T01:50:45;9.00;;;4.90;;
45792;SDS011;31495;42.740;22.908;2022-07-30T01:51:49;8.48;;;5.43;;
45792;SDS011;31495;42.740;22.908;2022-07-30T01:52:50;7.97;;;5.38;;
45792;SDS011;31495;42.740;22.908;2022-07-30T01:53:51;7.63;;;4.85;;
45792;SDS011;31495;42.740;22.908;2022-07-30T01:54:53;6.88;;;5.47;;
45792;SDS011;31495;42.740;22.908;2022-07-30T01:55:54;7.47;;;5.85;;
45792;SDS011;31495;42.740;22.908;2022-07-30T01:56:55;6.07;;;4.80;;
45792;SDS011;31495;42.740;22.908;2022-07-30T01:57:57;10.25;;;5.38;;
45792;SDS011;31495;42.740;22.908;2022-07-30T01:58:58;8.20;;;4.97;;
45792;SDS011;31495;42.740;22.908;2022-07-30T02:00:00;6.65;;;4.55;;
45792;SDS011;31495;42.740;22.908;2022-07-30T02:01:01;6.90;;;5.05;;
45792;SDS011;31495;42.740;22.908;2022-07-30T02:02:01;7.18;;;5.15;;
45792;SDS011;31495;42.740;22.908;2022-07-30T02:03:01;6.07;;;5.13;;
45792;SDS011;31495;42.740;22.908;2022-07-30T02:04:02;7.22;;;4.55;;
45792;SDS011;31495;42.740;22.908;2022-07-30T02:05:02;9.80;;;5.15;;
45792;SDS011;31495;42.740;22.908;2022-07-30T02:06:13;8.15;;;4.60;;
45792;SDS011;31495;42.740;22.908;2022-07-30T02:07:22;8.52;;;4.68;;
45792;SDS011;31495;42.740;22.908;2022-07-30T02:10:05;6.80;;;5.32;;
45792;SDS011;31495;42.740;22.908;2022-07-30T02:11:12;8.98;;;5.68;;
45792;SDS011;31495;42.740;22.908;2022-07-30T02:12:14;8.85;;;4.65;;
45792;SDS011;31495;42.740;22.908;2022-07-30T02:13:27;6.68;;;4.85;;
45792;SDS011;31495;42.740;22.908;2022-07-30T02:14:29;7.25;;;5.20;;
45792;SDS011;31495;42.740;22.908;2022-07-30T02:16:48;8.15;;;5.57;;
45792;SDS011;31495;42.740;22.908;2022-07-30T02:17:59;5.78;;;5.18;;
45792;SDS011;31495;42.740;22.908;2022-07-30T02:19:06;5.05;;;4.53;;
45792;SDS011;31495;42.740;22.908;2022-07-30T02:20:10;5.88;;;5.28;;
45792;SDS011;31495;42.740;22.908;2022-07-30T02:21:11;5.53;;;4.60;;
45792;SDS011;31495;42.740;22.908;2022-07-30T02:22:12;7.03;;;5.10;;
45792;SDS011;31495;42.740;22.908;2022-07-30T02:23:15;6.13;;;4.63;;
45792;SDS011;31495;42.740;22.908;2022-07-30T02:24:21;7.60;;;5.90;;
45792;SDS011;31495;42.740;22.908;2022-07-30T02:25:24;6.32;;;5.07;;
45792;SDS011;31495;42.740;22.908;2022-07-30T02:26:25;7.65;;;4.43;;
45792;SDS011;31495;42.740;22.908;2022-07-30T02:27:27;6.20;;;4.47;;
45792;SDS011;31495;42.740;22.908;2022-07-30T02:28:31;8.25;;;5.05;;
45792;SDS011;31495;42.740;22.908;2022-07-30T02:29:35;5.97;;;4.82;;
45792;SDS011;31495;42.740;22.908;2022-07-30T02:30:36;7.75;;;5.57;;
45792;SDS011;31495;42.740;22.908;2022-07-30T02:31:42;5.72;;;4.88;;
45792;SDS011;31495;42.740;22.908;2022-07-30T02:32:43;7.80;;;5.05;;
45792;SDS011;31495;42.740;22.908;2022-07-30T02:33:45;7.38;;;4.90;;
45792;SDS011;31495;42.740;22.908;2022-07-30T02:34:49;6.32;;;4.93;;
45792;SDS011;31495;42.740;22.908;2022-07-30T02:35:53;7.18;;;5.53;;
45792;SDS011;31495;42.740;22.908;2022-07-30T02:36:54;8.65;;;5.00;;
45792;SDS011;31495;42.740;22.908;2022-07-30T02:37:54;8.20;;;4.68;;
45792;SDS011;31495;42.740;22.908;2022-07-30T02:38:55;6.68;;;4.80;;
45792;SDS011;31495;42.740;22.908;2022-07-30T02:39:56;7.47;;;5.07;;
45792;SDS011;31495;42.740;22.908;2022-07-30T02:40:56;5.57;;;5.00;;
45792;SDS011;31495;42.740;22.908;2022-07-30T02:41:58;8.40;;;4.60;;
45792;SDS011;31495;42.740;22.908;2022-07-30T02:42:59;6.45;;;4.70;;
45792;SDS011;31495;42.740;22.908;2022-07-30T02:43:59;6.65;;;4.85;;
45792;SDS011;31495;42.740;22.908;2022-07-30T02:45:00;7.00;;;4.28;;
45792;SDS011;31495;42.740;22.908;2022-07-30T02:46:00;8.65;;;5.05;;
45792;SDS011;31495;42.740;22.908;2022-07-30T02:47:02;5.20;;;4.45;;
45792;SDS011;31495;42.740;22.908;2022-07-30T02:48:03;5.80;;;4.03;;
45792;SDS011;31495;42.740;22.908;2022-07-30T02:49:05;6.72;;;4.50;;
45792;SDS011;31495;42.740;22.908;2022-07-30T02:50:07;5.55;;;4.75;;
45792;SDS011;31495;42.740;22.908;2022-07-30T02:51:09;5.32;;;4.22;;
45792;SDS011;31495;42.740;22.908;2022-07-30T02:52:10;8.70;;;4.32;;
45792;SDS011;31495;42.740;22.908;2022-07-30T02:53:12;5.80;;;4.07;;
45792;SDS011;31495;42.740;22.908;2022-07-30T02:54:13;6.65;;;5.18;;
45792;SDS011;31495;42.740;22.908;2022-07-30T02:55:14;4.95;;;4.25;;
45792;SDS011;31495;42.740;22.908;2022-07-30T02:56:16;6.22;;;4.57;;
45792;SDS011;31495;42.740;22.908;2022-07-30T02:58:18;8.15;;;4.53;;
45792;SDS011;31495;42.740;22.908;2022-07-30T02:59:21;5.82;;;4.38;;
45792;SDS011;31495;42.740;22.908;2022-07-30T03:00:22;5.95;;;5.07;;
45792;SDS011;31495;42.740;22.908;2022-07-30T03:01:25;6.10;;;4.53;;
45792;SDS011;31495;42.740;22.908;2022-07-30T03:02:26;5.95;;;4.30;;
45792;SDS011;31495;42.740;22.908;2022-07-30T03:03:26;6.50;;;4.50;;
45792;SDS011;31495;42.740;22.908;2022-07-30T03:04:27;6.43;;;4.50;;
45792;SDS011;31495;42.740;22.908;2022-07-30T03:05:29;5.78;;;4.63;;
45792;SDS011;31495;42.740;22.908;2022-07-30T03:06:29;5.43;;;4.50;;
45792;SDS011;31495;42.740;22.908;2022-07-30T03:07:30;6.55;;;3.97;;
45792;SDS011;31495;42.740;22.908;2022-07-30T03:08:31;8.82;;;4.68;;
45792;SDS011;31495;42.740;22.908;2022-07-30T03:09:31;8.32;;;4.57;;
45792;SDS011;31495;42.740;22.908;2022-07-30T03:10:31;10.32;;;4.88;;
45792;SDS011;31495;42.740;22.908;2022-07-30T03:11:32;6.85;;;4.50;;
45792;SDS011;31495;42.740;22.908;2022-07-30T03:12:33;7.03;;;4.90;;
45792;SDS011;31495;42.740;22.908;2022-07-30T03:13:33;7.63;;;4.35;;
45792;SDS011;31495;42.740;22.908;2022-07-30T03:14:33;8.77;;;4.75;;
45792;SDS011;31495;42.740;22.908;2022-07-30T03:15:33;5.30;;;4.00;;
45792;SDS011;31495;42.740;22.908;2022-07-30T03:16:36;6.75;;;4.53;;
45792;SDS011;31495;42.740;22.908;2022-07-30T03:17:39;5.35;;;4.38;;
45792;SDS011;31495;42.740;22.908;2022-07-30T03:18:42;7.90;;;5.22;;
45792;SDS011;31495;42.740;22.908;2022-07-30T03:19:44;10.15;;;4.75;;
45792;SDS011;31495;42.740;22.908;2022-07-30T03:20:45;6.78;;;4.10;;
45792;SDS011;31495;42.740;22.908;2022-07-30T03:21:47;8.13;;;4.80;;
45792;SDS011;31495;42.740;22.908;2022-07-30T03:22:49;8.90;;;5.30;;
45792;SDS011;31495;42.740;22.908;2022-07-30T03:23:50;6.53;;;4.65;;
45792;SDS011;31495;42.740;22.908;2022-07-30T03:24:52;5.70;;;4.80;;
45792;SDS011;31495;42.740;22.908;2022-07-30T03:25:55;7.22;;;4.47;;
45792;SDS011;31495;42.740;22.908;2022-07-30T03:26:58;7.95;;;5.07;;
45792;SDS011;31495;42.740;22.908;2022-07-30T03:28:00;10.43;;;4.20;;
45792;SDS011;31495;42.740;22.908;2022-07-30T03:29:02;9.00;;;4.97;;
45792;SDS011;31495;42.740;22.908;2022-07-30T03:30:02;8.68;;;5.85;;
45792;SDS011;31495;42.740;22.908;2022-07-30T03:31:03;6.57;;;4.75;;
45792;SDS011;31495;42.740;22.908;2022-07-30T03:32:04;7.78;;;4.95;;
45792;SDS011;31495;42.740;22.908;2022-07-30T03:33:04;5.47;;;4.63;;
45792;SDS011;31495;42.740;22.908;2022-07-30T03:34:05;6.15;;;4.60;;
45792;SDS011;31495;42.740;22.908;2022-07-30T03:35:07;7.40;;;4.90;;
45792;SDS011;31495;42.740;22.908;2022-07-30T03:36:07;7.93;;;5.07;;
45792;SDS011;31495;42.740;22.908;2022-07-30T03:37:10;10.38;;;4.95;;
45792;SDS011;31495;42.740;22.908;2022-07-30T03:38:14;7.75;;;4.95;;
45792;SDS011;31495;42.740;22.908;2022-07-30T03:39:15;7.50;;;4.50;;
45792;SDS011;31495;42.740;22.908;2022-07-30T03:40:17;5.57;;;4.55;;
45792;SDS011;31495;42.740;22.908;2022-07-30T03:41:18;10.73;;;4.82;;
45792;SDS011;31495;42.740;22.908;2022-07-30T03:42:18;6.45;;;4.80;;
45792;SDS011;31495;42.740;22.908;2022-07-30T03:43:18;6.68;;;4.75;;
45792;SDS011;31495;42.740;22.908;2022-07-30T03:44:18;5.72;;;4.15;;
45792;SDS011;31495;42.740;22.908;2022-07-30T03:45:18;6.25;;;4.72;;
45792;SDS011;31495;42.740;22.908;2022-07-30T03:46:19;6.30;;;4.78;;
45792;SDS011;31495;42.740;22.908;2022-07-30T03:47:19;5.53;;;4.40;;
45792;SDS011;31495;42.740;22.908;2022-07-30T03:48:20;7.68;;;4.90;;
45792;SDS011;31495;42.740;22.908;2022-07-30T03:49:22;5.30;;;4.43;;
45792;SDS011;31495;42.740;22.908;2022-07-30T03:50:22;8.00;;;4.70;;
45792;SDS011;31495;42.740;22.908;2022-07-30T03:51:21;8.85;;;5.00;;
45792;SDS011;31495;42.740;22.908;2022-07-30T03:52:21;8.50;;;5.07;;
45792;SDS011;31495;42.740;22.908;2022-07-30T03:53:21;11.30;;;4.82;;
45792;SDS011;31495;42.740;22.908;2022-07-30T03:54:23;7.05;;;5.15;;
45792;SDS011;31495;42.740;22.908;2022-07-30T03:55:23;7.95;;;5.72;;
45792;SDS011;31495;42.740;22.908;2022-07-30T03:56:23;10.45;;;5.50;;
45792;SDS011;31495;42.740;22.908;2022-07-30T03:57:23;7.05;;;5.60;;
45792;SDS011;31495;42.740;22.908;2022-07-30T03:58:24;5.45;;;4.55;;
45792;SDS011;31495;42.740;22.908;2022-07-30T03:59:24;8.75;;;5.93;;
45792;SDS011;31495;42.740;22.908;2022-07-30T04:00:23;7.07;;;5.35;;
45792;SDS011;31495;42.740;22.908;2022-07-30T04:01:24;9.82;;;6.53;;
45792;SDS011;31495;42.740;22.908;2022-07-30T04:02:24;8.77;;;6.35;;
45792;SDS011;31495;42.740;22.908;2022-07-30T04:03:25;7.97;;;5.03;;
45792;SDS011;31495;42.740;22.908;2022-07-30T04:04:25;8.27;;;5.75;;
45792;SDS011;31495;42.740;22.908;2022-07-30T04:05:25;9.00;;;5.68;;
45792;SDS011;31495;42.740;22.908;2022-07-30T04:06:24;9.73;;;5.45;;
45792;SDS011;31495;42.740;22.908;2022-07-30T04:07:24;6.75;;;4.72;;
45792;SDS011;31495;42.740;22.908;2022-07-30T04:08:23;7.63;;;5.20;;
45792;SDS011;31495;42.740;22.908;2022-07-30T04:09:22;8.93;;;4.70;;
45792;SDS011;31495;42.740;22.908;2022-07-30T04:10:22;6.38;;;4.47;;
45792;SDS011;31495;42.740;22.908;2022-07-30T04:11:22;5.93;;;4.63;;
45792;SDS011;31495;42.740;22.908;2022-07-30T04:12:21;6.75;;;4.72;;
45792;SDS011;31495;42.740;22.908;2022-07-30T04:13:21;8.35;;;5.05;;
45792;SDS011;31495;42.740;22.908;2022-07-30T04:14:21;8.65;;;5.20;;
45792;SDS011;31495;42.740;22.908;2022-07-30T04:15:20;5.38;;;4.50;;
45792;SDS011;31495;42.740;22.908;2022-07-30T04:16:22;6.35;;;4.78;;
45792;SDS011;31495;42.740;22.908;2022-07-30T04:17:30;8.50;;;4.78;;
45792;SDS011;31495;42.740;22.908;2022-07-30T04:18:36;6.40;;;4.82;;
45792;SDS011;31495;42.740;22.908;2022-07-30T04:19:41;10.07;;;4.88;;
45792;SDS011;31495;42.740;22.908;2022-07-30T04:20:45;7.60;;;5.18;;
45792;SDS011;31495;42.740;22.908;2022-07-30T04:21:47;9.90;;;5.82;;
45792;SDS011;31495;42.740;22.908;2022-07-30T04:22:48;6.47;;;5.15;;
45792;SDS011;31495;42.740;22.908;2022-07-30T04:23:49;6.32;;;4.95;;
45792;SDS011;31495;42.740;22.908;2022-07-30T04:24:51;7.28;;;5.38;;
45792;SDS011;31495;42.740;22.908;2022-07-30T04:25:52;7.43;;;5.10;;
45792;SDS011;31495;42.740;22.908;2022-07-30T04:26:51;11.88;;;5.43;;
45792;SDS011;31495;42.740;22.908;2022-07-30T04:27:51;8.60;;;4.82;;
45792;SDS011;31495;42.740;22.908;2022-07-30T04:28:51;5.78;;;5.18;;
45792;SDS011;31495;42.740;22.908;2022-07-30T04:29:50;8.07;;;5.32;;
45792;SDS011;31495;42.740;22.908;2022-07-30T04:30:51;6.68;;;5.22;;
45792;SDS011;31495;42.740;22.908;2022-07-30T04:31:52;7.43;;;5.20;;
45792;SDS011;31495;42.740;22.908;2022-07-30T04:32:52;12.73;;;5.60;;
45792;SDS011;31495;42.740;22.908;2022-07-30T04:33:52;5.88;;;5.28;;
45792;SDS011;31495;42.740;22.908;2022-07-30T04:34:52;10.25;;;5.35;;
45792;SDS011;31495;42.740;22.908;2022-07-30T04:35:53;7.22;;;4.95;;
45792;SDS011;31495;42.740;22.908;2022-07-30T04:36:53;5.80;;;5.18;;
45792;SDS011;31495;42.740;22.908;2022-07-30T04:37:52;6.22;;;4.65;;
45792;SDS011;31495;42.740;22.908;2022-07-30T04:38:52;8.43;;;5.13;;
45792;SDS011;31495;42.740;22.908;2022-07-30T04:39:52;12.80;;;5.72;;
45792;SDS011;31495;42.740;22.908;2022-07-30T04:40:52;6.70;;;5.28;;
45792;SDS011;31495;42.740;22.908;2022-07-30T04:41:52;6.68;;;4.53;;
45792;SDS011;31495;42.740;22.908;2022-07-30T04:42:51;7.47;;;5.28;;
45792;SDS011;31495;42.740;22.908;2022-07-30T04:43:51;6.85;;;4.35;;
45792;SDS011;31495;42.740;22.908;2022-07-30T04:44:51;9.10;;;5.32;;
45792;SDS011;31495;42.740;22.908;2022-07-30T04:45:51;10.45;;;4.70;;
45792;SDS011;31495;42.740;22.908;2022-07-30T04:46:51;4.95;;;4.40;;
45792;SDS011;31495;42.740;22.908;2022-07-30T04:47:50;5.85;;;4.55;;
45792;SDS011;31495;42.740;22.908;2022-07-30T04:48:52;6.82;;;5.00;;
45792;SDS011;31495;42.740;22.908;2022-07-30T04:49:51;5.25;;;4.45;;
45792;SDS011;31495;42.740;22.908;2022-07-30T04:50:52;11.52;;;4.65;;
45792;SDS011;31495;42.740;22.908;2022-07-30T04:51:55;5.68;;;4.82;;
45792;SDS011;31495;42.740;22.908;2022-07-30T04:52:56;5.32;;;4.82;;
45792;SDS011;31495;42.740;22.908;2022-07-30T04:53:56;5.20;;;4.65;;
45792;SDS011;31495;42.740;22.908;2022-07-30T04:54:58;12.55;;;5.40;;
45792;SDS011;31495;42.740;22.908;2022-07-30T04:56:01;9.48;;;5.00;;
45792;SDS011;31495;42.740;22.908;2022-07-30T04:57:04;7.60;;;4.75;;
45792;SDS011;31495;42.740;22.908;2022-07-30T04:58:05;7.10;;;4.25;;
45792;SDS011;31495;42.740;22.908;2022-07-30T04:59:05;8.32;;;4.70;;
45792;SDS011;31495;42.740;22.908;2022-07-30T05:00:07;9.73;;;6.05;;
45792;SDS011;31495;42.740;22.908;2022-07-30T05:01:07;7.85;;;5.68;;
45792;SDS011;31495;42.740;22.908;2022-07-30T05:02:08;7.25;;;5.18;;
45792;SDS011;31495;42.740;22.908;2022-07-30T05:03:11;7.63;;;4.82;;
45792;SDS011;31495;42.740;22.908;2022-07-30T05:04:12;6.93;;;5.25;;
45792;SDS011;31495;42.740;22.908;2022-07-30T05:05:14;6.90;;;5.20;;
45792;SDS011;31495;42.740;22.908;2022-07-30T05:07:15;7.72;;;5.65;;
45792;SDS011;31495;42.740;22.908;2022-07-30T05:08:17;7.13;;;4.95;;
45792;SDS011;31495;42.740;22.908;2022-07-30T05:09:16;6.68;;;5.25;;
45792;SDS011;31495;42.740;22.908;2022-07-30T05:10:16;8.98;;;5.82;;
45792;SDS011;31495;42.740;22.908;2022-07-30T05:11:16;8.48;;;5.20;;
45792;SDS011;31495;42.740;22.908;2022-07-30T05:12:15;10.25;;;5.53;;
45792;SDS011;31495;42.740;22.908;2022-07-30T05:13:15;11.30;;;6.68;;
45792;SDS011;31495;42.740;22.908;2022-07-30T05:14:14;11.93;;;6.47;;
45792;SDS011;31495;42.740;22.908;2022-07-30T05:15:14;7.93;;;6.15;;
45792;SDS011;31495;42.740;22.908;2022-07-30T05:16:14;7.93;;;6.05;;
45792;SDS011;31495;42.740;22.908;2022-07-30T05:17:13;7.03;;;5.43;;
45792;SDS011;31495;42.740;22.908;2022-07-30T05:18:13;9.13;;;5.90;;
45792;SDS011;31495;42.740;22.908;2022-07-30T05:19:13;7.93;;;5.30;;
45792;SDS011;31495;42.740;22.908;2022-07-30T05:20:12;8.57;;;5.80;;
45792;SDS011;31495;42.740;22.908;2022-07-30T05:21:12;8.98;;;6.32;;
45792;SDS011;31495;42.740;22.908;2022-07-30T05:22:12;7.78;;;5.57;;
45792;SDS011;31495;42.740;22.908;2022-07-30T05:23:12;8.15;;;6.00;;
45792;SDS011;31495;42.740;22.908;2022-07-30T05:24:12;8.95;;;5.25;;
45792;SDS011;31495;42.740;22.908;2022-07-30T05:25:12;6.75;;;5.40;;
45792;SDS011;31495;42.740;22.908;2022-07-30T05:26:11;6.90;;;5.90;;
45792;SDS011;31495;42.740;22.908;2022-07-30T05:27:11;7.38;;;5.78;;
45792;SDS011;31495;42.740;22.908;2022-07-30T05:28:10;7.93;;;6.20;;
45792;SDS011;31495;42.740;22.908;2022-07-30T05:29:10;8.18;;;5.68;;
45792;SDS011;31495;42.740;22.908;2022-07-30T05:30:10;9.20;;;6.47;;
45792;SDS011;31495;42.740;22.908;2022-07-30T05:31:10;10.15;;;6.03;;
45792;SDS011;31495;42.740;22.908;2022-07-30T05:32:09;9.80;;;6.30;;
45792;SDS011;31495;42.740;22.908;2022-07-30T05:33:08;11.50;;;6.65;;
45792;SDS011;31495;42.740;22.908;2022-07-30T05:34:08;8.50;;;6.82;;
45792;SDS011;31495;42.740;22.908;2022-07-30T05:35:07;7.72;;;6.47;;
45792;SDS011;31495;42.740;22.908;2022-07-30T05:36:07;8.77;;;6.80;;
45792;SDS011;31495;42.740;22.908;2022-07-30T05:37:07;7.97;;;6.05;;
45792;SDS011;31495;42.740;22.908;2022-07-30T05:38:06;8.95;;;6.65;;
45792;SDS011;31495;42.740;22.908;2022-07-30T05:39:06;9.38;;;6.68;;
45792;SDS011;31495;42.740;22.908;2022-07-30T05:40:05;8.10;;;6.40;;
45792;SDS011;31495;42.740;22.908;2022-07-30T05:41:05;13.38;;;6.68;;
45792;SDS011;31495;42.740;22.908;2022-07-30T05:42:05;8.77;;;7.13;;
45792;SDS011;31495;42.740;22.908;2022-07-30T05:43:04;8.57;;;6.85;;
45792;SDS011;31495;42.740;22.908;2022-07-30T05:44:04;7.45;;;5.95;;
45792;SDS011;31495;42.740;22.908;2022-07-30T05:45:03;7.90;;;6.53;;
45792;SDS011;31495;42.740;22.908;2022-07-30T05:46:03;10.15;;;6.60;;
45792;SDS011;31495;42.740;22.908;2022-07-30T05:47:02;9.50;;;6.13;;
45792;SDS011;31495;42.740;22.908;2022-07-30T05:48:02;11.48;;;6.18;;
45792;SDS011;31495;42.740;22.908;2022-07-30T05:49:02;11.38;;;6.40;;
45792;SDS011;31495;42.740;22.908;2022-07-30T05:50:02;8.95;;;6.20;;
45792;SDS011;31495;42.740;22.908;2022-07-30T05:51:02;11.95;;;6.13;;
45792;SDS011;31495;42.740;22.908;2022-07-30T05:52:03;6.95;;;5.43;;
45792;SDS011;31495;42.740;22.908;2022-07-30T05:53:03;7.38;;;6.10;;
45792;SDS011;31495;42.740;22.908;2022-07-30T05:54:02;7.70;;;5.18;;
45792;SDS011;31495;42.740;22.908;2022-07-30T05:55:02;6.88;;;5.38;;
45792;SDS011;31495;42.740;22.908;2022-07-30T05:56:02;8.63;;;5.25;;
45792;SDS011;31495;42.740;22.908;2022-07-30T05:57:02;9.20;;;5.30;;
45792;SDS011;31495;42.740;22.908;2022-07-30T05:58:02;9.05;;;5.05;;
45792;SDS011;31495;42.740;22.908;2022-07-30T05:59:02;6.78;;;4.85;;
45792;SDS011;31495;42.740;22.908;2022-07-30T06:00:03;6.32;;;5.22;;
45792;SDS011;31495;42.740;22.908;2022-07-30T06:01:04;8.55;;;5.57;;
45792;SDS011;31495;42.740;22.908;2022-07-30T06:02:04;6.07;;;4.88;;
45792;SDS011;31495;42.740;22.908;2022-07-30T06:03:04;6.50;;;5.47;;
45792;SDS011;31495;42.740;22.908;2022-07-30T06:04:04;10.13;;;4.85;;
45792;SDS011;31495;42.740;22.908;2022-07-30T06:05:03;7.55;;;5.15;;
45792;SDS011;31495;42.740;22.908;2022-07-30T06:06:03;4.97;;;4.28;;
45792;SDS011;31495;42.740;22.908;2022-07-30T06:07:04;6.75;;;4.43;;
45792;SDS011;31495;42.740;22.908;2022-07-30T06:08:04;7.20;;;5.18;;
45792;SDS011;31495;42.740;22.908;2022-07-30T06:09:03;8.95;;;4.80;;